createdAt,value
2019-02-08T00:02:10.920Z,101.50
2019-02-08T00:04:43.118Z,126.00
2019-02-08T00:07:14.506Z,132.13
2019-02-08T00:09:45.456Z,130.17
2019-02-08T00:12:16.817Z,115.10
2019-02-08T00:14:47.765Z,113.00
2019-02-08T00:17:18.626Z,108.00
2019-02-08T00:19:49.612Z,106.50
2019-02-08T00:22:20.618Z,138.77
2019-02-08T00:24:51.706Z,129.13
2019-02-08T00:27:22.914Z,154.93
2019-02-08T00:29:54.262Z,140.50
2019-02-08T00:32:26.121Z,113.37
2019-02-08T00:34:57.424Z,113.27
2019-02-08T00:37:28.259Z,119.53
2019-02-08T00:39:58.976Z,126.07
2019-02-08T00:42:29.972Z,139.60
2019-02-08T00:45:01.880Z,122.30
2019-02-08T00:47:32.538Z,114.17
2019-02-08T00:50:03.542Z,110.37
2019-02-08T00:52:34.305Z,131.87
2019-02-08T00:55:05.814Z,132.27
2019-02-08T00:57:37.378Z,113.77
2019-02-08T01:00:10.647Z,107.57
2019-02-08T01:03:20.748Z,116.63
2019-02-08T01:05:51.509Z,107.23
2019-02-08T01:08:23.206Z,121.60
2019-02-08T01:10:54.155Z,135.17
2019-02-08T01:13:25.040Z,126.50
2019-02-08T01:15:55.875Z,124.67
2019-02-08T01:18:26.959Z,152.63
2019-02-08T01:20:57.725Z,135.53
2019-02-08T01:23:28.607Z,106.27
2019-02-08T01:25:59.309Z,114.17
2019-02-08T01:28:30.305Z,132.87
2019-02-08T01:31:01.512Z,119.07
2019-02-08T01:33:32.491Z,118.67
2019-02-08T01:36:03.813Z,128.83
2019-02-08T01:38:34.783Z,125.37
2019-02-08T01:41:06.017Z,105.60
2019-02-08T01:43:37.006Z,123.10
2019-02-08T01:46:08.030Z,115.13
2019-02-08T01:48:39.045Z,117.70
2019-02-08T01:51:10.244Z,122.60
2019-02-08T01:53:48.353Z,120.93
2019-02-08T01:56:13.716Z,102.77
2019-02-08T01:58:44.308Z,102.87
2019-02-08T02:01:15.086Z,120.43
2019-02-08T02:03:45.936Z,106.50
2019-02-08T02:06:16.692Z,119.17
2019-02-08T02:08:47.504Z,115.13
2019-02-08T02:11:18.284Z,116.33
2019-02-08T02:13:48.988Z,148.97
2019-02-08T02:16:19.864Z,134.80
2019-02-08T02:18:50.835Z,122.83
2019-02-08T02:21:21.951Z,110.37
2019-02-08T02:23:56.235Z,87.93
2019-02-08T02:26:25.176Z,122.23
2019-02-08T02:28:55.732Z,91.57
2019-02-08T02:31:26.880Z,145.53
2019-02-08T02:33:57.760Z,124.07
2019-02-08T02:36:28.947Z,107.63
2019-02-08T02:38:59.764Z,121.03
2019-02-08T02:41:30.709Z,108.00
2019-02-08T02:44:01.669Z,100.33
2019-02-08T02:46:32.583Z,119.57
2019-02-08T02:49:03.294Z,115.33
2019-02-08T02:51:34.106Z,119.20
2019-02-08T02:54:05.247Z,109.93
2019-02-08T02:56:36.228Z,116.13
2019-02-08T02:59:07.567Z,104.27
2019-02-08T03:01:38.446Z,121.83
2019-02-08T03:04:09.321Z,133.50
2019-02-08T03:06:40.333Z,116.23
2019-02-08T03:09:11.946Z,116.70
2019-02-08T03:11:43.219Z,130.23
2019-02-08T03:14:14.089Z,111.33
2019-02-08T03:16:44.783Z,117.40
2019-02-08T03:19:15.584Z,123.20
2019-02-08T03:21:46.357Z,111.23
2019-02-08T03:24:17.333Z,137.97
2019-02-08T03:26:48.045Z,127.50
2019-02-08T03:29:18.905Z,133.43
2019-02-08T03:31:49.648Z,120.10
2019-02-08T03:34:20.718Z,132.53
2019-02-08T03:36:51.820Z,96.57
2019-02-08T03:39:22.676Z,131.63
2019-02-08T03:41:53.395Z,119.50
2019-02-08T03:44:26.424Z,136.70
2019-02-08T03:46:57.180Z,106.00
2019-02-08T03:49:27.819Z,120.47
2019-02-08T03:51:58.504Z,121.00
2019-02-08T03:54:29.222Z,111.70
2019-02-08T03:57:00.172Z,117.50
2019-02-08T03:59:31.091Z,100.27
2019-02-08T04:02:02.022Z,123.13
2019-02-08T04:04:32.946Z,109.90
2019-02-08T04:07:04.003Z,117.33
2019-02-08T04:09:35.078Z,113.40
2019-02-08T04:12:05.928Z,132.70
2019-02-08T04:14:36.892Z,135.97
2019-02-08T04:17:07.754Z,140.63
2019-02-08T04:19:38.607Z,136.47
2019-02-08T04:22:09.598Z,136.43
2019-02-08T04:24:40.584Z,127.90
2019-02-08T04:27:11.506Z,144.30
2019-02-08T04:29:42.343Z,148.07
2019-02-08T04:32:13.202Z,145.53
2019-02-08T04:34:44.232Z,142.03
2019-02-08T04:37:15.261Z,154.53
2019-02-08T04:39:46.323Z,156.30
2019-02-08T04:42:16.799Z,153.90
2019-02-08T04:44:47.389Z,155.67
2019-02-08T04:47:18.064Z,164.33
2019-02-08T04:49:49.412Z,180.33
2019-02-08T04:52:20.106Z,153.53
2019-02-08T04:54:50.744Z,164.73
2019-02-08T04:57:21.969Z,143.53
2019-02-08T04:59:52.618Z,154.57
2019-02-08T05:02:23.646Z,133.90
2019-02-08T05:04:54.525Z,154.37
2019-02-08T05:07:26.324Z,169.27
2019-02-08T05:09:57.274Z,140.80
2019-02-08T05:12:28.066Z,154.40
2019-02-08T05:14:58.703Z,113.90
2019-02-08T05:17:29.612Z,141.07
2019-02-08T05:20:00.527Z,145.33
2019-02-08T05:22:32.169Z,146.33
2019-02-08T05:25:02.980Z,135.93
2019-02-08T05:27:34.093Z,143.93
2019-02-08T05:30:08.211Z,136.17
2019-02-08T05:32:39.014Z,141.83
2019-02-08T05:35:10.021Z,155.53
2019-02-08T05:37:43.015Z,144.83
2019-02-08T05:40:14.161Z,136.67
2019-02-08T05:42:45.137Z,149.93
2019-02-08T05:45:17.096Z,142.00
2019-02-08T05:47:48.048Z,138.33
2019-02-08T05:50:20.946Z,152.03
2019-02-08T05:52:51.914Z,154.77
2019-02-08T05:55:25.641Z,178.60
2019-02-08T05:57:56.453Z,164.97
2019-02-08T06:00:34.847Z,157.20
2019-02-08T06:03:06.272Z,169.23
2019-02-08T06:05:38.632Z,173.82
2019-02-08T06:08:09.923Z,156.17
2019-02-08T06:10:41.104Z,141.17
2019-02-08T06:13:12.138Z,145.10
2019-02-08T06:15:43.260Z,157.90
2019-02-08T06:18:14.443Z,177.03
2019-02-08T06:20:45.342Z,131.87
2019-02-08T06:23:16.103Z,132.23
2019-02-08T06:25:46.736Z,135.57
2019-02-08T06:28:17.284Z,134.97
2019-02-08T06:30:48.209Z,120.93
2019-02-08T06:33:18.752Z,136.87
2019-02-08T06:35:49.967Z,114.53
2019-02-08T06:38:20.881Z,130.00
2019-02-08T06:40:52.646Z,126.90
2019-02-08T06:43:23.416Z,136.03
2019-02-08T06:45:54.493Z,123.17
2019-02-08T06:48:27.314Z,144.77
2019-02-08T06:50:58.150Z,150.10
2019-02-08T06:53:29.596Z,143.20
2019-02-08T06:56:00.815Z,157.47
2019-02-08T06:58:35.929Z,153.53
2019-02-08T07:01:32.577Z,130.77
2019-02-08T07:04:21.539Z,112.47
2019-02-08T07:07:30.046Z,128.10
2019-02-08T07:10:19.723Z,139.17
2019-02-08T07:13:09.235Z,148.53
2019-02-08T07:15:57.759Z,144.67
2019-02-08T07:18:46.159Z,152.83
2019-02-08T07:21:49.206Z,140.50
2019-02-08T07:24:34.557Z,132.17
2019-02-08T07:27:36.757Z,119.37
2019-02-08T07:30:29.055Z,116.90
2019-02-08T07:33:18.943Z,123.50
2019-02-08T07:36:00.945Z,108.80
2019-02-08T07:38:54.267Z,124.53
2019-02-08T07:41:44.860Z,121.00
2019-02-08T07:44:38.334Z,122.20
2019-02-08T07:47:26.692Z,119.33
2019-02-08T07:50:15.846Z,126.30
2019-02-08T07:53:08.112Z,143.17
2019-02-08T07:55:53.980Z,143.90
2019-02-08T07:58:56.250Z,118.43
2019-02-08T08:01:44.584Z,127.83
2019-02-08T08:04:25.215Z,120.77
2019-02-08T08:07:14.234Z,126.07
2019-02-08T08:10:13.296Z,117.00
2019-02-08T08:13:09.268Z,103.97
2019-02-08T08:15:58.675Z,115.87
2019-02-08T08:18:51.511Z,130.70
2019-02-08T08:21:41.766Z,106.87
2019-02-08T08:24:25.363Z,114.73
2019-02-08T08:27:17.739Z,117.10
2019-02-08T08:30:16.353Z,113.40
2019-02-08T08:33:00.205Z,110.67
2019-02-08T08:35:47.395Z,97.70
2019-02-08T08:39:08.779Z,97.73
2019-02-08T08:42:28.640Z,114.83
2019-02-08T08:45:47.309Z,116.23
2019-02-08T08:48:44.703Z,112.67
2019-02-08T08:51:59.395Z,93.60
2019-02-08T08:55:00.931Z,94.80
2019-02-08T08:57:45.281Z,97.90
2019-02-08T09:01:09.057Z,102.40
2019-02-08T09:04:27.142Z,89.23
2019-02-08T09:07:39.768Z,88.50
2019-02-08T09:10:49.879Z,97.57
2019-02-08T09:14:07.428Z,107.27
2019-02-08T09:17:20.218Z,105.90
2019-02-08T09:20:35.462Z,106.97
2019-02-08T09:23:33.552Z,109.93
2019-02-08T09:26:37.954Z,114.03
2019-02-08T09:29:46.760Z,113.03
2019-02-08T09:33:09.664Z,93.40
2019-02-08T09:36:18.690Z,98.87
2019-02-08T09:39:24.026Z,107.23
2019-02-08T09:42:30.534Z,102.83
2019-02-08T09:45:50.744Z,100.33
2019-02-08T09:49:04.799Z,106.37
2019-02-08T09:52:23.027Z,95.73
2019-02-08T09:55:20.371Z,96.77
2019-02-08T09:58:20.099Z,100.53
2019-02-08T10:01:17.733Z,87.17
2019-02-08T10:04:22.440Z,87.63
2019-02-08T10:07:36.323Z,97.23
2019-02-08T10:10:47.560Z,103.53
2019-02-08T10:14:04.641Z,108.40
2019-02-08T10:17:17.067Z,88.10
2019-02-08T10:20:32.379Z,83.90
2019-02-08T10:23:46.180Z,97.90
2019-02-08T10:26:52.374Z,92.57
2019-02-08T10:30:01.082Z,88.10
2019-02-08T10:33:14.687Z,82.17
2019-02-08T10:36:21.712Z,81.27
2019-02-08T10:39:48.442Z,99.63
2019-02-08T10:43:07.872Z,93.23
2019-02-08T10:46:33.720Z,86.73
2019-02-08T10:49:44.008Z,89.80
2019-02-08T10:52:54.340Z,99.37
2019-02-08T10:56:04.426Z,87.47
2019-02-08T10:59:11.904Z,91.37
2019-02-08T11:02:38.866Z,93.67
2019-02-08T11:05:58.988Z,82.77
2019-02-08T11:09:12.822Z,83.07
2019-02-08T11:12:52.052Z,82.83
2019-02-08T11:16:11.780Z,79.27
2019-02-08T11:19:12.277Z,77.83
2019-02-08T11:21:43.299Z,82.60
2019-02-08T11:24:17.465Z,71.13
2019-02-08T11:26:49.004Z,76.83
2019-02-08T11:29:20.101Z,87.00
2019-02-08T11:31:51.047Z,75.30
2019-02-08T11:34:22.105Z,80.30
2019-02-08T11:36:53.157Z,79.37
2019-02-08T11:39:24.112Z,82.70
2019-02-08T11:41:55.405Z,85.83
2019-02-08T11:44:27.099Z,83.33
2019-02-08T11:46:58.029Z,79.00
2019-02-08T11:49:28.818Z,85.37
2019-02-08T11:51:59.479Z,89.07
2019-02-08T11:54:30.236Z,80.50
2019-02-08T11:57:00.878Z,91.83
2019-02-08T11:59:31.814Z,94.90
2019-02-08T12:02:02.850Z,99.80
2019-02-08T12:04:33.808Z,87.20
2019-02-08T12:07:04.704Z,86.07
2019-02-08T12:09:35.332Z,93.63
2019-02-08T12:12:06.116Z,93.30
2019-02-08T12:14:37.282Z,93.53
2019-02-08T12:17:08.118Z,87.13
2019-02-08T12:19:39.294Z,88.50
2019-02-08T12:22:09.934Z,88.43
2019-02-08T12:24:41.058Z,83.53
2019-02-08T12:27:12.977Z,89.43
2019-02-08T12:29:43.741Z,92.10
2019-02-08T12:32:14.942Z,82.63
2019-02-08T12:34:45.922Z,81.60
2019-02-08T12:37:16.771Z,77.13
2019-02-08T12:39:47.469Z,76.87
2019-02-08T12:42:18.159Z,83.63
2019-02-08T12:44:48.746Z,70.40
2019-02-08T12:47:19.756Z,71.77
2019-02-08T12:49:50.568Z,54.23
2019-02-08T12:52:21.589Z,56.27
2019-02-08T12:54:53.102Z,63.90
2019-02-08T12:57:24.820Z,45.17
2019-02-08T12:59:55.572Z,40.27
2019-02-08T13:02:26.395Z,44.43
2019-02-08T13:04:57.507Z,44.20
2019-02-08T13:07:28.030Z,37.30
2019-02-08T13:09:58.907Z,40.63
2019-02-08T13:12:29.813Z,40.03
2019-02-08T13:15:00.706Z,44.73
2019-02-08T13:17:32.026Z,46.90
2019-02-08T13:20:02.541Z,38.27
2019-02-08T13:22:33.298Z,37.93
2019-02-08T13:25:04.123Z,40.27
2019-02-08T13:27:36.056Z,46.30
2019-02-08T13:30:16.808Z,48.37
2019-02-08T13:32:48.252Z,46.80
2019-02-08T13:35:19.567Z,41.97
2019-02-08T13:37:50.936Z,44.37
2019-02-08T13:40:22.577Z,38.33
2019-02-08T13:42:54.877Z,33.83
2019-02-08T13:45:26.590Z,43.17
2019-02-08T13:47:57.559Z,33.57
2019-02-08T13:50:28.942Z,36.53
2019-02-08T13:52:59.867Z,40.03
2019-02-08T13:55:30.855Z,43.53
2019-02-08T13:58:01.732Z,47.70
2019-02-08T14:00:36.901Z,40.33
2019-02-08T14:03:08.309Z,44.77
2019-02-08T14:05:40.009Z,45.33
2019-02-08T14:08:10.901Z,42.50
2019-02-08T14:10:42.388Z,43.53
2019-02-08T14:13:13.686Z,44.00
2019-02-08T14:15:44.397Z,47.80
2019-02-08T14:18:15.383Z,45.00
2019-02-08T14:20:46.358Z,48.97
2019-02-08T14:23:17.120Z,37.73
2019-02-08T14:25:48.302Z,55.47
2019-02-08T14:28:19.033Z,42.23
2019-02-08T14:30:49.780Z,39.13
2019-02-08T14:33:20.366Z,37.37
2019-02-08T14:35:51.330Z,40.17
2019-02-08T14:38:23.384Z,32.30
2019-02-08T14:40:54.236Z,34.87
2019-02-08T14:43:25.100Z,42.10
2019-02-08T14:45:55.655Z,41.93
2019-02-08T14:48:26.447Z,33.13
2019-02-08T14:50:56.937Z,30.50
2019-02-08T14:53:27.873Z,42.37
2019-02-08T14:55:58.652Z,32.23
2019-02-08T14:58:29.632Z,41.67
2019-02-08T15:01:00.423Z,46.40
2019-02-08T15:03:31.343Z,44.30
2019-02-08T15:06:02.309Z,43.10
2019-02-08T15:08:33.290Z,41.97
2019-02-08T15:11:03.807Z,42.03
2019-02-08T15:13:34.964Z,49.13
2019-02-08T15:16:05.949Z,43.23
2019-02-08T15:18:36.749Z,45.27
2019-02-08T15:21:07.439Z,37.97
2019-02-08T15:23:38.390Z,40.87
2019-02-08T15:26:09.218Z,37.23
2019-02-08T15:28:40.286Z,38.40
2019-02-08T15:31:11.082Z,37.30
2019-02-08T15:33:41.869Z,38.27
2019-02-08T15:36:12.488Z,46.73
2019-02-08T15:38:43.259Z,38.67
2019-02-08T15:41:13.745Z,37.77
2019-02-08T15:43:44.682Z,40.17
2019-02-08T15:46:15.663Z,39.17
2019-02-08T15:48:46.681Z,55.17
2019-02-08T15:51:17.892Z,37.60
2019-02-08T15:53:48.655Z,39.10
2019-02-08T15:56:21.254Z,56.30
2019-02-08T15:58:52.634Z,46.47
2019-02-08T16:01:23.587Z,55.67
2019-02-08T16:03:54.379Z,41.83
2019-02-08T16:06:25.120Z,43.83
2019-02-08T16:08:55.998Z,66.83
2019-02-08T16:11:26.662Z,52.10
2019-02-08T16:13:57.669Z,64.60
2019-02-08T16:16:28.142Z,43.03
2019-02-08T16:18:58.945Z,53.73
2019-02-08T16:21:29.958Z,55.60
2019-02-08T16:24:01.051Z,57.20
2019-02-08T16:26:32.957Z,55.13
2019-02-08T16:29:04.367Z,127.30
2019-02-08T16:31:35.060Z,58.93
2019-02-08T16:34:06.382Z,50.03
2019-02-08T16:36:37.607Z,58.30
2019-02-08T16:39:10.578Z,53.80
2019-02-08T16:41:41.937Z,48.80
2019-02-08T16:44:13.038Z,56.73
2019-02-08T16:46:44.030Z,63.37
2019-02-08T16:49:15.053Z,62.80
2019-02-08T16:51:46.081Z,57.63
2019-02-08T16:54:16.815Z,73.43
2019-02-08T16:56:47.604Z,67.13
2019-02-08T16:59:18.678Z,79.80
2019-02-08T17:01:49.803Z,87.87
2019-02-08T17:04:23.744Z,83.93
2019-02-08T17:06:54.775Z,70.03
2019-02-08T17:09:25.788Z,90.07
2019-02-08T17:11:56.620Z,99.83
2019-02-08T17:14:27.298Z,94.57
2019-02-08T17:16:57.804Z,105.57
2019-02-08T17:19:28.559Z,98.03
2019-02-08T17:21:59.206Z,92.03
2019-02-08T17:24:30.078Z,97.33
2019-02-08T17:27:00.789Z,95.30
2019-02-08T17:29:31.738Z,97.20
2019-02-08T17:32:02.641Z,109.40
2019-02-08T17:34:33.969Z,109.60
2019-02-08T17:37:05.124Z,149.33
2019-02-08T17:39:36.251Z,127.97
2019-02-08T17:42:07.612Z,118.30
2019-02-08T17:44:38.661Z,141.03
2019-02-08T17:47:09.718Z,145.00
2019-02-08T17:49:40.804Z,141.80
2019-02-08T17:52:11.762Z,121.40
2019-02-08T17:54:42.916Z,129.70
2019-02-08T17:57:14.087Z,119.90
2019-02-08T17:59:45.070Z,129.27
2019-02-08T18:02:16.212Z,145.20
2019-02-08T18:04:47.083Z,223.83
2019-02-08T18:07:18.396Z,147.47
2019-02-08T18:09:49.314Z,126.40
2019-02-08T18:12:20.170Z,124.17
2019-02-08T18:14:51.005Z,123.77
2019-02-08T18:17:22.868Z,116.37
2019-02-08T18:19:53.851Z,131.23
2019-02-08T18:22:26.204Z,117.77
2019-02-08T18:24:57.317Z,124.17
2019-02-08T18:27:28.149Z,110.13
2019-02-08T18:29:58.993Z,125.83
2019-02-08T18:32:29.798Z,155.50
2019-02-08T18:35:00.531Z,233.00
2019-02-08T18:37:31.581Z,132.50
2019-02-08T18:40:02.437Z,127.63
2019-02-08T18:42:34.569Z,142.00
2019-02-08T18:45:07.029Z,141.57
2019-02-08T18:47:38.207Z,135.57
2019-02-08T18:50:21.741Z,195.20
2019-02-08T18:52:53.023Z,137.27
2019-02-08T18:55:23.954Z,152.87
2019-02-08T18:57:55.362Z,145.27
2019-02-08T19:00:28.510Z,184.50
2019-02-08T19:02:59.838Z,147.20
2019-02-08T19:05:30.970Z,109.67
2019-02-08T19:08:01.853Z,155.27
2019-02-08T19:10:32.828Z,126.60
2019-02-08T19:13:04.981Z,130.80
2019-02-08T19:15:35.933Z,150.43
2019-02-08T19:18:07.705Z,149.37
2019-02-08T19:20:39.070Z,142.27
2019-02-08T19:23:10.537Z,149.33
2019-02-08T19:25:42.747Z,142.80
2019-02-08T19:28:14.455Z,153.60
2019-02-08T19:30:45.789Z,151.33
2019-02-08T19:33:16.739Z,174.80
2019-02-08T19:35:47.612Z,174.23
2019-02-08T19:38:18.504Z,169.73
2019-02-08T19:40:49.514Z,201.27
2019-02-08T19:43:20.326Z,203.30
2019-02-08T19:45:51.907Z,218.80
2019-02-08T19:48:24.627Z,196.93
2019-02-08T19:50:56.489Z,188.03
2019-02-08T19:53:27.548Z,202.37
2019-02-08T19:55:58.375Z,184.17
2019-02-08T19:58:34.687Z,197.33
2019-02-08T20:01:02.191Z,176.90
2019-02-08T20:03:33.406Z,184.87
2019-02-08T20:06:04.600Z,174.53
2019-02-08T20:08:35.516Z,214.30
2019-02-08T20:11:07.168Z,190.90
2019-02-08T20:13:38.008Z,186.00
2019-02-08T20:16:09.332Z,196.97
2019-02-08T20:18:40.442Z,187.97
2019-02-08T20:21:11.587Z,240.60
2019-02-08T20:23:43.337Z,208.27
2019-02-08T20:26:14.600Z,225.83
2019-02-08T20:28:45.634Z,238.50
2019-02-08T20:31:16.614Z,259.53
2019-02-08T20:33:47.597Z,243.13
2019-02-08T20:36:19.537Z,203.40
2019-02-08T20:38:50.159Z,226.53
2019-02-08T20:41:20.899Z,234.30
2019-02-08T20:43:52.255Z,213.03
2019-02-08T20:46:22.928Z,212.63
2019-02-08T20:48:53.636Z,232.10
2019-02-08T20:51:26.447Z,205.57
2019-02-08T20:53:57.213Z,179.50
2019-02-08T20:56:27.956Z,223.30
2019-02-08T20:58:58.698Z,261.77
2019-02-08T21:01:29.482Z,230.07
2019-02-08T21:04:00.248Z,245.87
2019-02-08T21:06:31.219Z,213.17
2019-02-08T21:09:02.170Z,205.27
2019-02-08T21:11:35.360Z,209.87
2019-02-08T21:14:06.370Z,220.53
2019-02-08T21:16:37.279Z,210.33
2019-02-08T21:19:08.287Z,193.00
2019-02-08T21:21:39.608Z,192.43
2019-02-08T21:24:10.445Z,192.77
2019-02-08T21:26:41.178Z,194.57
2019-02-08T21:29:12.135Z,181.53
2019-02-08T21:31:43.288Z,171.43
2019-02-08T21:34:14.247Z,190.03
2019-02-08T21:36:45.430Z,182.00
2019-02-08T21:39:16.007Z,154.63
2019-02-08T21:41:46.890Z,150.97
2019-02-08T21:44:18.253Z,157.83
2019-02-08T21:46:49.076Z,173.20
2019-02-08T21:49:20.625Z,238.13
2019-02-08T21:51:51.311Z,256.63
2019-02-08T21:54:23.045Z,230.57
2019-02-08T21:56:54.060Z,205.73
2019-02-08T21:59:24.969Z,216.57
2019-02-08T22:01:55.728Z,188.03
2019-02-08T22:04:26.872Z,214.83
2019-02-08T22:06:57.567Z,158.17
2019-02-08T22:09:28.735Z,199.80
2019-02-08T22:12:00.334Z,231.00
2019-02-08T22:14:31.354Z,197.83
2019-02-08T22:17:02.445Z,292.53
2019-02-08T22:19:33.585Z,264.53
2019-02-08T22:22:04.984Z,216.43
2019-02-08T22:24:36.118Z,212.03
2019-02-08T22:27:07.263Z,196.23
2019-02-08T22:29:38.372Z,208.00
2019-02-08T22:32:09.246Z,199.93
2019-02-08T22:34:40.771Z,189.87
2019-02-08T22:37:12.651Z,191.00
2019-02-08T22:39:45.321Z,191.17
2019-02-08T22:42:17.123Z,183.77
2019-02-08T22:44:47.852Z,206.20
2019-02-08T22:47:19.041Z,208.50
2019-02-08T22:49:49.978Z,190.17
2019-02-08T22:52:21.111Z,178.37
2019-02-08T22:54:54.739Z,200.57
2019-02-08T22:57:25.570Z,189.27
2019-02-08T22:59:56.235Z,189.13
2019-02-08T23:02:27.102Z,185.70
2019-02-08T23:04:58.062Z,163.13
2019-02-08T23:07:28.774Z,191.23
2019-02-08T23:09:59.610Z,223.77
2019-02-08T23:12:30.817Z,209.47
2019-02-08T23:15:03.641Z,212.07
2019-02-08T23:17:37.157Z,215.53
2019-02-08T23:20:09.579Z,199.77
2019-02-08T23:22:40.530Z,201.83
2019-02-08T23:25:11.643Z,198.07
2019-02-08T23:27:43.043Z,243.40
2019-02-08T23:30:14.496Z,218.90
2019-02-08T23:32:45.570Z,177.07
2019-02-08T23:35:16.665Z,219.33
2019-02-08T23:37:47.487Z,235.37
2019-02-08T23:40:18.890Z,200.00
2019-02-08T23:42:49.740Z,220.77
2019-02-08T23:45:20.882Z,187.67
2019-02-08T23:47:51.888Z,172.10
2019-02-08T23:50:22.700Z,174.83
2019-02-08T23:52:54.212Z,218.10
2019-02-08T23:55:25.328Z,163.80
2019-02-08T23:57:56.409Z,169.33
